createdAt,value
2023-04-25T00:03:41.286Z,12.76
2023-04-25T00:08:44.987Z,12.72
2023-04-25T00:13:51.026Z,12.60
2023-04-25T00:18:54.842Z,12.49
2023-04-25T00:23:58.510Z,12.38
2023-04-25T00:29:03.446Z,12.11
2023-04-25T00:34:07.041Z,11.87
2023-04-25T00:39:10.638Z,11.77
2023-04-25T00:44:18.150Z,11.61
2023-04-25T00:49:21.631Z,11.29
2023-04-25T00:54:25.450Z,11.05
2023-04-25T00:59:31.067Z,10.91
2023-04-25T01:04:34.779Z,10.79
2023-04-25T01:09:38.306Z,10.71
2023-04-25T01:14:43.268Z,10.69
2023-04-25T01:19:47.425Z,10.58
2023-04-25T01:24:52.552Z,10.53
2023-04-25T01:29:56.799Z,10.47
2023-04-25T01:35:00.274Z,10.41
2023-04-25T01:40:06.577Z,10.48
2023-04-25T01:45:11.892Z,10.63
2023-04-25T01:50:15.503Z,10.62
2023-04-25T01:55:20.450Z,10.66
2023-04-25T02:00:23.953Z,10.71
2023-04-25T02:05:27.480Z,10.73
2023-04-25T02:10:32.546Z,10.85
2023-04-25T02:15:36.103Z,10.92
2023-04-25T02:21:02.227Z,11.04
2023-04-25T02:26:07.478Z,11.12
2023-04-25T02:31:11.212Z,11.17
2023-04-25T02:36:14.813Z,11.26
2023-04-25T02:41:19.807Z,11.40
2023-04-25T02:46:32.523Z,11.52
2023-04-25T02:51:41.686Z,11.70
2023-04-25T02:56:46.660Z,11.87
2023-04-25T03:01:50.105Z,11.91
2023-04-25T03:06:54.261Z,11.75
2023-04-25T03:11:59.269Z,11.83
2023-04-25T03:17:02.952Z,11.82
2023-04-25T03:22:06.472Z,11.88
2023-04-25T03:27:11.475Z,11.97
2023-04-25T03:32:15.092Z,12.19
2023-04-25T03:37:18.768Z,12.21
2023-04-25T03:42:24.684Z,12.39
2023-04-25T03:47:28.190Z,12.62
2023-04-25T03:52:31.806Z,12.98
2023-04-25T03:57:36.735Z,15.05
2023-04-25T04:02:41.857Z,17.17
2023-04-25T04:07:46.748Z,18.54
2023-04-25T04:12:51.664Z,20.52
2023-04-25T04:17:55.352Z,22.38
2023-04-25T04:22:58.931Z,24.75
2023-04-25T04:28:03.962Z,26.27
2023-04-25T04:33:08.649Z,30.39
2023-04-25T04:38:13.518Z,30.09
2023-04-25T04:43:20.033Z,32.87
2023-04-25T04:48:24.850Z,35.01
2023-04-25T04:53:28.301Z,35.86
2023-04-25T04:58:32.887Z,36.69
2023-04-25T05:03:36.534Z,37.39
2023-04-25T05:08:40.195Z,36.83
2023-04-25T05:13:45.286Z,37.80
2023-04-25T05:18:49.253Z,38.13
2023-04-25T05:23:53.092Z,39.39
2023-04-25T05:28:58.200Z,38.59
2023-04-25T05:34:01.726Z,38.16
2023-04-25T05:39:05.872Z,39.97
2023-04-25T05:44:10.967Z,38.86
2023-04-25T05:49:14.525Z,37.88
2023-04-25T05:54:17.970Z,39.23
2023-04-25T05:59:22.895Z,38.87
2023-04-25T06:04:27.583Z,38.70
2023-04-25T06:09:31.356Z,38.47
2023-04-25T06:14:36.545Z,37.97
2023-04-25T06:19:40.312Z,40.31
2023-04-25T06:24:43.883Z,40.19
2023-04-25T06:29:48.749Z,40.47
2023-04-25T06:34:52.238Z,39.53
2023-04-25T06:39:55.722Z,41.21
2023-04-25T06:45:00.828Z,41.32
2023-04-25T06:50:04.563Z,41.63
2023-04-25T06:55:09.035Z,40.63
2023-04-25T07:00:15.499Z,42.52
2023-04-25T07:05:19.411Z,43.42
2023-04-25T07:10:23.141Z,44.96
2023-04-25T07:15:28.036Z,44.02
2023-04-25T07:20:32.180Z,43.51
2023-04-25T07:25:36.252Z,42.87
2023-04-25T07:30:41.257Z,41.72
2023-04-25T07:35:44.710Z,42.47
2023-04-25T07:40:48.201Z,41.99
2023-04-25T07:45:53.146Z,43.22
2023-04-25T07:50:56.658Z,42.02
2023-04-25T07:56:00.148Z,41.46
2023-04-25T08:01:05.379Z,38.70
2023-04-25T08:06:09.153Z,34.25
2023-04-25T08:11:13.015Z,35.45
2023-04-25T08:16:17.987Z,36.09
2023-04-25T08:21:21.613Z,34.01
2023-04-25T08:26:25.082Z,31.38
2023-04-25T08:31:30.272Z,29.83
2023-04-25T08:36:39.441Z,28.82
2023-04-25T08:41:45.660Z,27.95
2023-04-25T08:46:51.829Z,26.26
2023-04-25T08:51:59.408Z,25.55
2023-04-25T08:57:05.522Z,25.09
2023-04-25T09:02:12.751Z,24.48
2023-04-25T09:07:19.724Z,22.97
2023-04-25T09:12:23.765Z,23.11
2023-04-25T09:17:29.850Z,23.01
2023-04-25T09:22:33.292Z,22.86
2023-04-25T09:27:36.963Z,22.61
2023-04-25T09:32:42.339Z,22.32
2023-04-25T09:37:45.849Z,22.03
2023-04-25T09:42:49.422Z,22.66
2023-04-25T09:47:59.014Z,22.33
2023-04-25T09:53:06.657Z,22.66
2023-04-25T09:58:12.912Z,22.90
2023-04-25T10:03:19.722Z,23.23
2023-04-25T10:08:24.999Z,23.06
2023-04-25T10:13:29.703Z,23.14
2023-04-25T10:18:35.376Z,22.50
2023-04-25T10:23:39.685Z,22.07
2023-04-25T10:28:58.020Z,21.21
2023-04-25T10:34:03.482Z,21.16
2023-04-25T10:39:10.013Z,20.89
2023-04-25T10:44:13.651Z,21.08
2023-04-25T10:49:35.019Z,20.80
2023-04-25T10:54:43.272Z,21.03
2023-04-25T10:59:47.401Z,21.51
2023-04-25T11:04:53.551Z,22.21
2023-04-25T11:09:57.192Z,22.51
2023-04-25T11:15:05.836Z,22.60
2023-04-25T11:20:12.568Z,22.56
2023-04-25T11:25:17.826Z,22.21
2023-04-25T11:30:22.630Z,22.32
2023-04-25T11:35:27.861Z,22.51
2023-04-25T11:40:33.256Z,22.50
2023-04-25T11:45:39.165Z,22.13
2023-04-25T11:50:44.258Z,22.09
2023-04-25T11:55:47.866Z,22.08
2023-04-25T12:00:51.800Z,22.43
2023-04-25T12:06:05.811Z,21.84
2023-04-25T12:11:23.911Z,21.65
2023-04-25T12:16:27.522Z,22.06
2023-04-25T12:21:35.385Z,22.69
2023-04-25T12:26:49.793Z,22.36
2023-04-25T12:31:55.037Z,22.66
2023-04-25T12:37:00.187Z,22.63
2023-04-25T12:42:06.104Z,23.09
2023-04-25T12:47:11.636Z,23.08
2023-04-25T12:52:16.701Z,23.49
2023-04-25T12:57:20.195Z,23.53
2023-04-25T13:02:23.884Z,23.21
2023-04-25T13:07:28.868Z,23.13
2023-04-25T13:12:32.701Z,22.92
2023-04-25T13:17:36.291Z,22.20
2023-04-25T13:22:42.107Z,22.30
2023-04-25T13:27:46.064Z,22.32
2023-04-25T13:32:49.641Z,21.93
2023-04-25T13:37:54.599Z,22.11
2023-04-25T13:42:58.541Z,22.09
2023-04-25T13:48:02.081Z,22.02
2023-04-25T13:53:07.119Z,22.03
2023-04-25T13:58:11.193Z,21.76
2023-04-25T14:03:14.788Z,22.11
2023-04-25T14:08:19.709Z,22.08
2023-04-25T14:13:24.529Z,21.84
2023-04-25T14:18:28.034Z,21.36
2023-04-25T14:23:32.971Z,21.27
2023-04-25T14:28:36.514Z,21.13
2023-04-25T14:33:42.986Z,21.04
2023-04-25T14:38:47.994Z,20.82
2023-04-25T14:43:51.887Z,20.43
2023-04-25T14:48:57.089Z,20.41
2023-04-25T14:54:02.244Z,20.52
2023-04-25T14:59:05.712Z,20.60
2023-04-25T15:04:09.331Z,20.78
2023-04-25T15:09:14.459Z,20.93
2023-04-25T15:14:18.875Z,21.00
2023-04-25T15:19:23.271Z,20.85
2023-04-25T15:24:28.200Z,20.68
2023-04-25T15:29:32.155Z,20.45
2023-04-25T15:34:36.469Z,20.43
2023-04-25T15:39:41.572Z,20.44
2023-04-25T15:44:45.123Z,20.49
2023-04-25T15:49:48.620Z,20.38
2023-04-25T15:54:53.584Z,20.24
2023-04-25T15:59:57.249Z,20.19
2023-04-25T16:05:00.907Z,19.95
2023-04-25T16:10:06.683Z,19.66
2023-04-25T16:15:13.452Z,19.52
2023-04-25T16:20:17.123Z,19.51
2023-04-25T16:25:23.032Z,19.45
2023-04-25T16:30:26.925Z,19.24
2023-04-25T16:35:32.567Z,19.12
2023-04-25T16:40:37.762Z,18.95
2023-04-25T16:45:41.343Z,18.78
2023-04-25T16:50:44.957Z,18.52
2023-04-25T16:55:49.919Z,18.27
2023-04-25T17:00:53.956Z,18.12
2023-04-25T17:05:57.988Z,18.05
2023-04-25T17:11:03.054Z,17.85
2023-04-25T17:16:07.576Z,17.71
2023-04-25T17:21:10.796Z,17.58
2023-04-25T17:26:16.599Z,17.51
2023-04-25T17:31:20.667Z,17.48
2023-04-25T17:36:24.795Z,17.47
2023-04-25T17:41:29.780Z,17.44
2023-04-25T17:46:33.487Z,17.35
2023-04-25T17:51:37.087Z,17.21
2023-04-25T17:56:42.182Z,17.15
2023-04-25T18:01:47.786Z,17.09
2023-04-25T18:06:51.817Z,17.09
2023-04-25T18:11:56.868Z,17.05
2023-04-25T18:17:00.404Z,17.01
2023-04-25T18:22:04.213Z,17.02
2023-04-25T18:27:09.138Z,16.75
2023-04-25T18:32:12.854Z,16.66
2023-04-25T18:37:16.385Z,16.70
2023-04-25T18:42:22.613Z,16.64
2023-04-25T18:47:26.109Z,16.55
2023-04-25T18:52:29.757Z,16.55
2023-04-25T18:57:34.829Z,16.57
2023-04-25T19:02:38.822Z,16.47
2023-04-25T19:07:42.451Z,16.41
2023-04-25T19:12:49.397Z,16.42
2023-04-25T19:17:53.600Z,16.42
2023-04-25T19:22:57.272Z,16.44
2023-04-25T19:28:02.484Z,16.47
2023-04-25T19:33:06.353Z,16.47
2023-04-25T19:38:09.915Z,16.35
2023-04-25T19:43:14.843Z,16.31
2023-04-25T19:48:18.441Z,16.37
2023-04-25T19:53:21.959Z,16.48
2023-04-25T19:58:27.316Z,16.51
2023-04-25T20:03:30.901Z,16.30
2023-04-25T20:08:36.435Z,16.30
2023-04-25T20:13:41.401Z,16.25
2023-04-25T20:18:44.933Z,16.23
2023-04-25T20:23:48.485Z,16.09
2023-04-25T20:28:53.566Z,16.18
2023-04-25T20:33:57.419Z,16.05
2023-04-25T20:39:01.053Z,16.05
2023-04-25T20:44:07.650Z,16.21
2023-04-25T20:49:11.098Z,16.22
2023-04-25T20:54:14.599Z,16.18
2023-04-25T20:59:19.524Z,16.26
2023-04-25T21:04:23.212Z,16.03
2023-04-25T21:09:27.006Z,16.05
2023-04-25T21:14:31.922Z,15.97
2023-04-25T21:19:35.410Z,15.85
2023-04-25T21:24:38.878Z,15.81
2023-04-25T21:29:43.748Z,15.86
2023-04-25T21:34:47.202Z,15.71
2023-04-25T21:39:50.756Z,15.59
2023-04-25T21:44:56.187Z,15.60
2023-04-25T21:49:59.887Z,15.40
2023-04-25T21:55:03.599Z,15.50
2023-04-25T22:00:24.796Z,15.49
2023-04-25T22:05:29.588Z,15.51
2023-04-25T22:10:33.700Z,15.46
2023-04-25T22:15:38.622Z,15.44
2023-04-25T22:20:42.120Z,15.36
2023-04-25T22:25:46.372Z,15.29
2023-04-25T22:30:51.275Z,15.01
2023-04-25T22:35:54.763Z,14.99
2023-04-25T22:40:58.275Z,15.01
2023-04-25T22:46:03.684Z,14.98
2023-04-25T22:51:07.832Z,14.83
2023-04-25T22:56:11.443Z,14.67
2023-04-25T23:01:19.344Z,14.47
2023-04-25T23:06:23.008Z,14.33
2023-04-25T23:11:26.570Z,14.33
2023-04-25T23:16:31.504Z,14.25
2023-04-25T23:21:35.018Z,14.30
2023-04-25T23:26:38.563Z,14.30
2023-04-25T23:31:43.459Z,14.19
2023-04-25T23:36:48.244Z,14.07
2023-04-25T23:41:51.701Z,13.90
2023-04-25T23:46:56.702Z,13.88
2023-04-25T23:52:00.149Z,13.93
2023-04-25T23:57:04.913Z,13.79
